Time;durP1;ratioP1;P1;durP2;ratioP2;P2;SDS_P1;SDS_P2;PMS_P1;PMS_P2;Temp;Humidity;BMP_temperature;BMP_pressure;BME280_temperature;BME280_humidity;BME280_pressure;Samples;Min_cycle;Max_cycle;Signal;HPM_P1;HPM_P2
2023/09/07 00:00:15;;;;;;;3.83;2.72;;;21.00;99.90;;;;;;5059146;28;20047;-69
2023/09/07 00:02:40;;;;;;;3.67;2.30;;;20.90;99.90;;;;;;5071981;28;20473;-69
2023/09/07 00:05:07;;;;;;;;;;;20.90;99.90;;;;;;5057222;28;20045;-69
2023/09/07 00:07:33;;;;;;;5.15;2.35;;;20.90;99.90;;;;;;5062008;28;19924;-69
2023/09/07 00:09:59;;;;;;;5.53;2.72;;;20.90;99.90;;;;;;5055808;28;20041;-69
2023/09/07 00:12:27;;;;;;;4.88;3.00;;;20.80;99.90;;;;;;5070152;28;20063;-69
2023/09/07 00:14:57;;;;;;;4.20;2.30;;;20.80;99.90;;;;;;5054116;28;20123;-69
2023/09/07 00:17:24;;;;;;;3.83;2.42;;;20.80;99.90;;;;;;5066015;28;20033;-69
2023/09/07 00:19:50;;;;;;;3.10;2.00;;;20.80;99.90;;;;;;5056619;28;20441;-68
2023/09/07 00:22:17;;;;;;;2.90;1.95;;;20.80;99.90;;;;;;5045366;28;20041;-69
2023/09/07 00:24:43;;;;;;;4.50;2.50;;;20.70;99.90;;;;;;5058760;28;20111;-73
2023/09/07 00:27:11;;;;;;;4.95;2.65;;;20.70;99.90;;;;;;5052585;28;20032;-69
2023/09/07 00:29:37;;;;;;;4.00;2.75;;;20.70;99.90;;;;;;5051188;28;20048;-68
2023/09/07 00:32:04;;;;;;;5.78;2.55;;;20.60;99.90;;;;;;5035084;28;20056;-68
2023/09/07 00:34:32;;;;;;;3.17;2.45;;;20.60;99.90;;;;;;5056023;28;20036;-68
2023/09/07 00:36:58;;;;;;;4.65;2.40;;;20.60;99.90;;;;;;5065799;28;20482;-68
2023/09/07 00:39:23;;;;;;;;;;;20.60;99.90;;;;;;5036995;28;20080;-68
2023/09/07 00:41:49;;;;;;;3.70;2.58;;;20.60;99.90;;;;;;5051717;28;20003;-68
2023/09/07 00:44:15;;;;;;;5.53;2.63;;;20.50;99.90;;;;;;5048996;28;20031;-68
2023/09/07 00:46:41;;;;;;;;;;;20.50;99.90;;;;;;5066162;28;20040;-69
2023/09/07 00:49:07;;;;;;;3.88;2.55;;;20.40;99.90;;;;;;5050867;28;20381;-68
2023/09/07 00:51:33;;;;;;;;;;;20.50;99.90;;;;;;5052481;28;20047;-68
2023/09/07 00:53:59;;;;;;;3.53;2.00;;;20.40;99.90;;;;;;5048495;28;19920;-69
2023/09/07 00:56:28;;;;;;;;;;;20.40;99.90;;;;;;5071087;28;20520;-69
2023/09/07 00:58:55;;;;;;;7.13;2.15;;;20.30;99.90;;;;;;5043558;28;19965;-69
2023/09/07 01:01:23;;;;;;;4.70;2.70;;;20.30;99.90;;;;;;5060214;28;20056;-69
2023/09/07 01:03:50;;;;;;;4.85;2.30;;;20.30;99.90;;;;;;5103317;22;20040;-71
2023/09/07 01:06:26;;;;;;;4.65;2.33;;;20.30;99.90;;;;;;5044240;28;20089;-71
2023/09/07 01:08:56;;;;;;;4.85;2.70;;;20.30;99.90;;;;;;5027077;28;20048;-70
2023/09/07 01:11:26;;;;;;;3.33;2.08;;;20.30;99.90;;;;;;5026544;28;20048;-71
2023/09/07 01:13:53;;;;;;;4.18;2.22;;;20.20;99.90;;;;;;5025387;28;20073;-70
2023/09/07 01:16:20;;;;;;;6.10;2.42;;;20.10;99.90;;;;;;5025685;28;20041;-71
2023/09/07 01:18:47;;;;;;;8.30;2.50;;;20.10;99.90;;;;;;5025228;28;20064;-71
2023/09/07 01:21:13;;;;;;;4.55;2.30;;;20.10;99.90;;;;;;5012505;28;20037;-71
2023/09/07 01:23:43;;;;;;;4.40;2.42;;;20.10;99.90;;;;;;5025147;28;20083;-70
2023/09/07 01:26:10;;;;;;;5.15;2.50;;;20.10;99.90;;;;;;5044627;28;20032;-71
2023/09/07 01:28:37;;;;;;;4.60;2.33;;;20.00;99.90;;;;;;5026333;28;20339;-70
2023/09/07 01:31:02;;;;;;;4.18;2.70;;;20.00;99.90;;;;;;5021227;28;20462;-71
2023/09/07 01:33:28;;;;;;;4.97;2.60;;;19.90;99.90;;;;;;5027562;28;20127;-71
2023/09/07 01:35:56;;;;;;;4.53;2.70;;;19.90;99.90;;;;;;5026802;28;20045;-71
2023/09/07 01:38:22;;;;;;;5.75;2.55;;;19.90;99.90;;;;;;5027688;28;20042;-71
2023/09/07 01:40:48;;;;;;;4.50;2.75;;;19.80;99.90;;;;;;5031443;28;20056;-70
2023/09/07 01:43:14;;;;;;;6.15;3.08;;;19.80;99.90;;;;;;5045299;28;20099;-70
2023/09/07 01:45:39;;;;;;;3.75;2.63;;;19.80;99.90;;;;;;5043665;28;20033;-70
2023/09/07 01:48:14;;;;;;;5.53;3.10;;;19.70;99.90;;;;;;5045346;28;20045;-70
2023/09/07 01:50:40;;;;;;;4.40;2.83;;;19.70;99.90;;;;;;5031804;28;20045;-70
2023/09/07 01:53:06;;;;;;;5.47;3.13;;;19.60;99.90;;;;;;5029821;28;20071;-70
2023/09/07 01:55:32;;;;;;;;;;;19.60;99.90;;;;;;5025263;28;20122;-70
2023/09/07 01:57:58;;;;;;;6.28;3.30;;;19.50;99.90;;;;;;5026711;28;19927;-71
2023/09/07 02:00:27;;;;;;;6.25;3.70;;;19.50;99.90;;;;;;5023736;28;20045;-71
2023/09/07 02:02:52;;;;;;;6.28;3.30;;;19.50;99.90;;;;;;5026665;28;20461;-71
2023/09/07 02:05:18;;;;;;;4.70;2.95;;;19.40;99.90;;;;;;5026698;28;20052;-70
2023/09/07 02:07:44;;;;;;;7.50;3.78;;;19.40;99.90;;;;;;5040267;28;20081;-71
2023/09/07 02:10:10;;;;;;;4.47;3.00;;;19.40;99.90;;;;;;5043871;28;20486;-70
2023/09/07 02:12:36;;;;;;;4.68;3.38;;;19.40;99.90;;;;;;5025960;28;20152;-70
2023/09/07 02:15:03;;;;;;;5.50;3.22;;;19.30;99.90;;;;;;5019175;28;20041;-70
2023/09/07 02:17:30;;;;;;;6.03;3.55;;;19.30;99.90;;;;;;5026878;28;20118;-71
2023/09/07 02:19:56;;;;;;;8.30;3.50;;;19.30;99.90;;;;;;5044121;28;20427;-71
2023/09/07 02:22:21;;;;;;;;;;;19.30;99.90;;;;;;5029501;28;20143;-70
2023/09/07 02:24:47;;;;;;;6.93;3.83;;;19.20;99.90;;;;;;5044830;28;19921;-70
2023/09/07 02:27:12;;;;;;;8.98;3.38;;;19.20;99.90;;;;;;5027839;28;20091;-70
2023/09/07 02:29:38;;;;;;;5.93;3.33;;;19.20;99.90;;;;;;5028560;28;20057;-71
2023/09/07 02:32:04;;;;;;;7.30;3.05;;;19.20;99.90;;;;;;5008387;28;20036;-71
2023/09/07 02:34:30;;;;;;;4.75;3.45;;;19.10;99.90;;;;;;5025802;28;20052;-71
2023/09/07 02:36:56;;;;;;;;;;;19.10;99.90;;;;;;5023486;28;20521;-70
2023/09/07 02:39:26;;;;;;;6.32;3.30;;;19.10;99.90;;;;;;5027419;28;20144;-71
2023/09/07 02:41:52;;;;;;;6.53;3.40;;;19.10;99.90;;;;;;5036814;28;20048;-70
2023/09/07 02:44:18;;;;;;;6.18;3.30;;;19.00;99.90;;;;;;5029957;28;20088;-70
2023/09/07 02:46:43;;;;;;;7.07;3.88;;;19.00;99.90;;;;;;5032707;28;20072;-71
2023/09/07 02:49:09;;;;;;;6.03;3.55;;;19.00;99.90;;;;;;5030432;28;20041;-71
2023/09/07 02:51:35;;;;;;;5.10;3.50;;;19.00;99.90;;;;;;5017763;28;20079;-71
2023/09/07 02:54:02;;;;;;;8.43;3.75;;;19.00;99.90;;;;;;5031086;28;20049;-70
2023/09/07 02:56:28;;;;;;;6.22;3.67;;;19.00;99.90;;;;;;5033878;28;20041;-71
2023/09/07 02:58:53;;;;;;;5.78;3.35;;;19.00;99.90;;;;;;5032873;28;20047;-71
2023/09/07 03:01:20;;;;;;;5.57;3.22;;;18.90;99.90;;;;;;5050394;28;20044;-71
2023/09/07 03:03:46;;;;;;;5.22;3.38;;;18.90;99.90;;;;;;5032321;28;20546;-71
2023/09/07 03:06:13;;;;;;;;;;;18.90;99.90;;;;;;5032913;28;20029;-70
2023/09/07 03:08:39;;;;;;;5.88;3.63;;;18.90;99.90;;;;;;5055716;28;19923;-70
2023/09/07 03:11:08;;;;;;;5.40;3.35;;;18.80;99.90;;;;;;5063591;28;20568;-71
2023/09/07 03:13:34;;;;;;;4.60;3.05;;;18.80;99.90;;;;;;5041769;28;20459;-71
2023/09/07 03:16:00;;;;;;;7.43;3.92;;;18.80;99.90;;;;;;5038920;28;20127;-70
2023/09/07 03:18:26;;;;;;;;;;;18.80;99.90;;;;;;5053974;28;20072;-71
2023/09/07 03:20:55;;;;;;;5.35;3.47;;;18.80;99.90;;;;;;5014555;28;20337;-70
2023/09/07 03:23:21;;;;;;;6.65;3.60;;;18.70;99.90;;;;;;5029413;28;20386;-71
2023/09/07 03:25:47;;;;;;;5.07;3.58;;;18.70;99.90;;;;;;5029993;28;20120;-70
2023/09/07 03:28:13;;;;;;;6.72;3.78;;;18.70;99.90;;;;;;5033831;28;20080;-71
2023/09/07 03:30:39;;;;;;;7.40;3.90;;;18.70;99.90;;;;;;5034210;28;20118;-70
2023/09/07 03:33:05;;;;;;;5.65;3.30;;;18.70;99.90;;;;;;5033659;28;20139;-70
2023/09/07 03:35:31;;;;;;;5.57;3.80;;;18.60;99.90;;;;;;5010331;28;20511;-70
2023/09/07 03:37:57;;;;;;;;;;;18.60;99.90;;;;;;5034119;28;20040;-70
2023/09/07 03:40:23;;;;;;;7.65;4.05;;;18.50;99.90;;;;;;5027267;28;19932;-71
2023/09/07 03:42:49;;;;;;;7.95;3.65;;;18.50;99.90;;;;;;5047773;28;20033;-70
2023/09/07 03:45:14;;;;;;;5.55;3.78;;;18.50;99.90;;;;;;5031599;28;20536;-70
2023/09/07 03:47:41;;;;;;;5.43;3.72;;;18.50;99.90;;;;;;5031813;28;20029;-70
2023/09/07 03:50:08;;;;;;;5.90;3.95;;;18.40;99.90;;;;;;5049096;28;20068;-70
2023/09/07 03:52:34;;;;;;;7.30;3.90;;;18.40;99.90;;;;;;5028447;28;20513;-70
2023/09/07 03:55:00;;;;;;;5.35;3.80;;;18.40;99.90;;;;;;5022815;28;20044;-70
2023/09/07 03:57:26;;;;;;;;;;;18.40;99.90;;;;;;5026533;28;20052;-70
2023/09/07 03:59:52;;;;;;;5.63;4.00;;;18.40;99.90;;;;;;5024307;28;19921;-70
2023/09/07 04:02:18;;;;;;;7.43;4.28;;;18.40;99.90;;;;;;5024491;28;20045;-71
2023/09/07 04:04:51;;;;;;;6.65;3.50;;;18.40;99.90;;;;;;5051404;28;20045;-71
2023/09/07 04:07:16;;;;;;;8.40;4.15;;;18.40;99.90;;;;;;5043823;28;20422;-71
2023/09/07 04:09:43;;;;;;;6.63;3.95;;;18.40;99.90;;;;;;5029719;28;20044;-70
2023/09/07 04:12:09;;;;;;;6.70;3.92;;;18.40;99.90;;;;;;5030741;28;20056;-71
2023/09/07 04:14:35;;;;;;;5.65;4.00;;;18.40;99.90;;;;;;5013049;28;20372;-70
2023/09/07 04:17:01;;;;;;;5.38;3.92;;;18.40;99.90;;;;;;5025894;28;20052;-71
2023/09/07 04:19:27;;;;;;;7.47;4.40;;;18.40;99.90;;;;;;5028650;28;20051;-71
2023/09/07 04:21:52;;;;;;;6.25;3.90;;;18.40;99.90;;;;;;5028201;28;20053;-70
2023/09/07 04:24:18;;;;;;;6.30;3.70;;;18.40;99.90;;;;;;5030571;28;20121;-71
2023/09/07 04:26:44;;;;;;;6.53;4.20;;;18.40;99.90;;;;;;5047365;28;20457;-70
2023/09/07 04:29:11;;;;;;;9.02;3.83;;;18.40;99.90;;;;;;5028735;28;20059;-70
2023/09/07 04:31:37;;;;;;;5.15;4.20;;;18.40;99.90;;;;;;5025271;28;20060;-71
2023/09/07 04:34:05;;;;;;;7.20;3.97;;;18.40;99.90;;;;;;5025236;28;20041;-71
2023/09/07 04:36:31;;;;;;;5.80;3.97;;;18.40;99.90;;;;;;5043083;28;20118;-70
2023/09/07 04:38:59;;;;;;;6.03;4.05;;;18.30;99.90;;;;;;5045825;28;20045;-70
2023/09/07 04:41:24;;;;;;;6.60;4.50;;;18.40;99.90;;;;;;5022331;28;20036;-70
2023/09/07 04:43:50;;;;;;;6.38;4.47;;;18.30;99.90;;;;;;5047009;28;20088;-70
2023/09/07 04:46:16;;;;;;;6.05;4.30;;;18.30;99.90;;;;;;5043973;28;20047;-70
2023/09/07 04:48:43;;;;;;;7.10;4.25;;;18.30;99.90;;;;;;5044435;28;20234;-70
2023/09/07 04:51:10;;;;;;;7.38;3.97;;;18.30;99.90;;;;;;5028946;28;20052;-70
2023/09/07 04:53:38;;;;;;;6.97;4.32;;;18.30;99.90;;;;;;5025912;28;20048;-70
2023/09/07 04:56:16;;;;;;;8.50;4.85;;;18.30;99.90;;;;;;5040260;28;20041;-70
2023/09/07 04:58:41;;;;;;;6.93;4.07;;;18.30;99.90;;;;;;5036882;28;20088;-70
2023/09/07 05:01:09;;;;;;;6.97;4.43;;;18.30;99.90;;;;;;5043501;28;20049;-70
2023/09/07 05:03:36;;;;;;;6.38;4.32;;;18.30;99.90;;;;;;5005282;28;20077;-70
2023/09/07 05:06:03;;;;;;;7.15;4.50;;;18.30;99.90;;;;;;5046854;28;20037;-70
2023/09/07 05:08:29;;;;;;;5.68;3.85;;;18.20;99.90;;;;;;5044305;28;20050;-70
2023/09/07 05:10:56;;;;;;;7.25;4.50;;;18.20;99.90;;;;;;5040828;28;20057;-69
2023/09/07 05:13:22;;;;;;;6.82;4.50;;;18.20;99.90;;;;;;5029417;28;20087;-70
2023/09/07 05:15:49;;;;;;;6.00;4.30;;;18.20;99.90;;;;;;5037506;28;20053;-70
2023/09/07 05:18:15;;;;;;;7.15;3.97;;;18.20;99.90;;;;;;5027817;28;20492;-70
2023/09/07 05:20:41;;;;;;;;;;;18.20;99.90;;;;;;5045606;28;20056;-70
2023/09/07 05:23:07;;;;;;;6.05;3.72;;;18.20;99.90;;;;;;5052293;28;20071;-70
2023/09/07 05:25:32;;;;;;;6.97;4.30;;;18.20;99.90;;;;;;5021890;28;20040;-70
2023/09/07 05:27:58;;;;;;;5.63;4.28;;;18.20;99.90;;;;;;5039792;28;20107;-70
2023/09/07 05:30:23;;;;;;;8.43;4.60;;;18.20;99.90;;;;;;5040113;28;20040;-69
2023/09/07 05:32:49;;;;;;;6.03;3.92;;;18.20;99.90;;;;;;5028690;28;20064;-70
2023/09/07 05:35:16;;;;;;;7.53;4.78;;;18.20;99.90;;;;;;5026636;28;20041;-70
2023/09/07 05:37:42;;;;;;;6.53;4.60;;;18.30;99.90;;;;;;5042040;28;20052;-70
2023/09/07 05:40:08;;;;;;;7.55;5.00;;;18.30;99.90;;;;;;5024689;28;20121;-69
2023/09/07 05:42:34;;;;;;;7.03;4.13;;;18.30;99.90;;;;;;5033193;28;20348;-69
2023/09/07 05:45:00;;;;;;;7.25;5.05;;;18.30;99.90;;;;;;5025304;28;20044;-69
2023/09/07 05:47:26;;;;;;;6.68;4.43;;;18.30;99.90;;;;;;5006752;28;20509;-69
2023/09/07 05:49:52;;;;;;;7.40;5.07;;;18.40;99.90;;;;;;5025785;28;20118;-69
2023/09/07 05:52:20;;;;;;;5.50;4.20;;;18.40;99.90;;;;;;5027956;28;20075;-69
2023/09/07 05:54:46;;;;;;;6.95;4.15;;;18.40;99.90;;;;;;5024582;28;20056;-70
2023/09/07 05:57:11;;;;;;;7.43;4.25;;;18.40;99.90;;;;;;5019985;28;20045;-69
2023/09/07 05:59:37;;;;;;;7.70;4.53;;;18.40;99.90;;;;;;5027714;28;20036;-70
2023/09/07 06:02:03;;;;;;;6.97;4.90;;;18.50;99.90;;;;;;5024260;28;20098;-70
2023/09/07 06:04:29;;;;;;;8.70;4.28;;;18.50;99.90;;;;;;5042690;28;20037;-70
2023/09/07 06:06:55;;;;;;;7.78;4.53;;;18.50;99.90;;;;;;5045630;28;20054;-70
2023/09/07 06:09:23;;;;;;;6.82;4.25;;;18.60;99.90;;;;;;5027761;28;20053;-70
2023/09/07 06:11:49;;;;;;;6.10;4.05;;;18.60;99.90;;;;;;5026500;28;20447;-69
2023/09/07 06:14:17;;;;;;;7.22;4.18;;;18.60;99.90;;;;;;5026253;28;20094;-69
2023/09/07 06:16:43;;;;;;;6.43;4.20;;;18.70;99.90;;;;;;5042580;28;20060;-70
2023/09/07 06:19:11;;;;;;;7.75;4.68;;;18.70;99.90;;;;;;5009163;28;20186;-71
2023/09/07 06:21:37;;;;;;;6.07;4.32;;;18.70;99.90;;;;;;5027670;28;20459;-70
2023/09/07 06:24:06;;;;;;;6.75;4.25;;;18.80;99.90;;;;;;5016277;28;20414;-70
2023/09/07 06:26:32;;;;;;;6.38;4.20;;;18.80;99.90;;;;;;5020638;28;20135;-70
2023/09/07 06:28:57;;;;;;;5.72;4.05;;;18.90;99.90;;;;;;5027399;28;20549;-70
2023/09/07 06:31:25;;;;;;;6.90;4.32;;;18.90;99.90;;;;;;5023533;28;20383;-71
2023/09/07 06:33:51;;;;;;;8.20;3.90;;;19.00;99.90;;;;;;5043533;28;20094;-69
2023/09/07 06:36:17;;;;;;;6.18;3.88;;;19.00;99.90;;;;;;5044217;28;20041;-71
2023/09/07 06:38:42;;;;;;;7.00;4.03;;;19.00;99.90;;;;;;5045113;28;20049;-71
2023/09/07 06:41:09;;;;;;;10.07;4.50;;;19.10;99.90;;;;;;5018055;28;20909;-73
2023/09/07 06:43:36;;;;;;;8.30;4.00;;;19.10;99.90;;;;;;5024295;28;20457;-70
2023/09/07 06:46:09;;;;;;;6.00;3.90;;;19.20;99.90;;;;;;5042297;28;20401;-70
2023/09/07 06:48:35;;;;;;;6.35;4.00;;;19.30;99.90;;;;;;5026104;28;20037;-70
2023/09/07 06:51:03;;;;;;;8.35;4.20;;;19.30;99.90;;;;;;5035614;28;20045;-70
2023/09/07 06:53:29;;;;;;;6.35;3.75;;;19.40;99.90;;;;;;5055642;28;20049;-70
2023/09/07 06:56:03;;;;;;;6.68;3.88;;;19.40;99.90;;;;;;5031722;28;20048;-70
2023/09/07 06:58:29;;;;;;;5.90;3.67;;;19.50;99.90;;;;;;5025801;28;20045;-70
2023/09/07 07:01:04;;;;;;;6.15;3.88;;;19.60;99.90;;;;;;5007334;28;20060;-70
2023/09/07 07:03:31;;;;;;;8.13;4.20;;;19.60;99.90;;;;;;5049543;22;20048;-71
2023/09/07 07:05:56;;;;;;;6.47;3.92;;;19.70;99.90;;;;;;5059609;28;20497;-70
2023/09/07 07:08:23;;;;;;;5.70;3.70;;;19.70;99.90;;;;;;5064141;28;20097;-71
2023/09/07 07:10:49;;;;;;;7.15;3.72;;;19.80;99.90;;;;;;5054612;28;20115;-70
2023/09/07 07:13:15;;;;;;;5.22;3.42;;;19.90;99.90;;;;;;5053417;28;20509;-70
2023/09/07 07:15:41;;;;;;;7.13;4.20;;;20.00;99.90;;;;;;5059947;28;20116;-70
2023/09/07 07:18:10;;;;;;;;;;;20.00;99.90;;;;;;5063713;28;20080;-70
2023/09/07 07:20:41;;;;;;;7.97;3.67;;;20.10;99.90;;;;;;5046439;28;19916;-71
2023/09/07 07:23:06;;;;;;;5.82;3.63;;;20.20;99.90;;;;;;5049070;28;20127;-70
2023/09/07 07:25:36;;;;;;;6.45;3.63;;;20.20;99.90;;;;;;5065615;28;20592;-70
2023/09/07 07:28:06;;;;;;;6.50;3.35;;;20.30;99.90;;;;;;5071295;28;20146;-70
2023/09/07 07:30:36;;;;;;;5.35;3.50;;;20.40;99.90;;;;;;5062167;28;20040;-71
2023/09/07 07:33:03;;;;;;;8.80;4.05;;;20.50;99.90;;;;;;5051393;28;20166;-70
2023/09/07 07:35:30;;;;;;;5.20;3.45;;;20.60;99.90;;;;;;5094409;28;20047;-70
2023/09/07 07:37:56;;;;;;;7.68;3.60;;;20.60;99.90;;;;;;5063440;28;20047;-71
2023/09/07 07:40:22;;;;;;;5.47;3.33;;;20.70;99.90;;;;;;5083075;28;20036;-69
2023/09/07 07:42:48;;;;;;;5.90;3.58;;;20.80;99.90;;;;;;5063094;28;20048;-69
2023/09/07 07:45:14;;;;;;;7.03;3.53;;;20.80;99.90;;;;;;5057280;28;20043;-69
2023/09/07 07:47:41;;;;;;;6.57;3.45;;;20.90;99.90;;;;;;5065558;28;20045;-70
2023/09/07 07:50:07;;;;;;;7.38;3.60;;;21.00;99.90;;;;;;5071650;28;20271;-69
2023/09/07 07:52:33;;;;;;;7.13;3.53;;;21.10;99.90;;;;;;5085969;28;20096;-69
2023/09/07 07:54:59;;;;;;;6.85;3.83;;;21.20;99.90;;;;;;5071593;28;20450;-69
2023/09/07 07:57:25;;;;;;;;;;;21.20;99.90;;;;;;5059303;28;20147;-69
2023/09/07 07:59:51;;;;;;;7.05;3.13;;;21.30;99.90;;;;;;5084242;28;20290;-66
2023/09/07 08:02:16;;;;;;;;;;;21.40;99.90;;;;;;5057890;28;20059;-68
2023/09/07 08:04:42;;;;;;;5.45;3.38;;;21.50;99.90;;;;;;5073431;28;19920;-76
2023/09/07 08:07:08;;;;;;;;;;;21.50;99.90;;;;;;5067725;28;20218;-72
2023/09/07 08:09:34;;;;;;;5.90;3.40;;;21.60;99.90;;;;;;5063671;28;19967;-72
2023/09/07 08:12:03;;;;;;;5.90;3.03;;;21.60;99.90;;;;;;5068985;28;20051;-71
2023/09/07 08:14:30;;;;;;;5.20;2.95;;;21.70;99.90;;;;;;5065834;28;20086;-69
2023/09/07 08:16:57;;;;;;;5.70;2.95;;;21.80;99.90;;;;;;5075378;28;20044;-70
2023/09/07 08:19:23;;;;;;;7.15;3.30;;;21.90;99.90;;;;;;5074608;28;20040;-71
2023/09/07 08:21:48;;;;;;;;;;;22.00;99.90;;;;;;5061528;28;20519;-70
2023/09/07 08:24:14;;;;;;;4.43;2.88;;;22.10;99.90;;;;;;5068531;28;19924;-69
2023/09/07 08:26:40;;;;;;;;;;;22.20;99.90;;;;;;5062148;28;20469;-71
2023/09/07 08:29:08;;;;;;;5.63;3.35;;;22.20;99.90;;;;;;5065022;28;20549;-70
2023/09/07 08:31:38;;;;;;;5.72;2.83;;;22.30;99.90;;;;;;5067321;28;20071;-68
2023/09/07 08:34:06;;;;;;;4.45;2.90;;;22.40;99.90;;;;;;5061242;28;20126;-70
2023/09/07 08:36:34;;;;;;;4.78;3.17;;;22.50;99.90;;;;;;5063776;28;20055;-70
2023/09/07 08:39:09;;;;;;;5.28;3.13;;;22.60;99.90;;;;;;5070352;28;20049;-67
2023/09/07 08:41:43;;;;;;;5.13;2.97;;;22.60;99.90;;;;;;5061896;28;20048;-67
2023/09/07 08:44:15;;;;;;;4.38;3.20;;;22.70;99.90;;;;;;5061989;28;20096;-73
2023/09/07 08:46:42;;;;;;;5.13;2.40;;;22.80;99.90;;;;;;5058763;28;20051;-71
2023/09/07 08:49:08;;;;;;;5.57;3.25;;;22.90;99.90;;;;;;5042831;28;20397;-68
2023/09/07 08:51:38;;;;;;;6.72;3.22;;;22.90;99.90;;;;;;5062294;28;20078;-69
2023/09/07 08:54:08;;;;;;;4.20;2.95;;;23.00;99.90;;;;;;5067312;28;20055;-75
2023/09/07 08:56:34;;;;;;;5.88;2.72;;;23.20;99.90;;;;;;5076074;28;20108;-70
2023/09/07 08:59:00;;;;;;;5.25;3.08;;;23.30;99.90;;;;;;5045056;28;20524;-68
2023/09/07 09:01:25;;;;;;;;;;;23.30;99.90;;;;;;5078528;28;20036;-68
2023/09/07 09:03:52;;;;;;;5.25;2.90;;;23.40;99.90;;;;;;5062930;28;19916;-68
2023/09/07 09:06:21;;;;;;;5.47;3.13;;;23.40;99.90;;;;;;5059063;28;20080;-68
2023/09/07 09:08:56;;;;;;;7.90;3.05;;;23.50;99.90;;;;;;5046530;28;20393;-68
2023/09/07 09:11:23;;;;;;;6.50;2.85;;;23.60;99.90;;;;;;5081584;28;20103;-68
2023/09/07 09:13:53;;;;;;;4.53;2.72;;;23.70;99.90;;;;;;5056299;28;20056;-68
2023/09/07 09:16:20;;;;;;;4.93;2.72;;;23.80;99.90;;;;;;5059758;28;20080;-68
2023/09/07 09:18:49;;;;;;;5.43;2.38;;;23.80;99.90;;;;;;5040203;28;20048;-68
2023/09/07 09:21:16;;;;;;;4.57;2.70;;;23.90;99.90;;;;;;5066417;28;20091;-68
2023/09/07 09:23:43;;;;;;;7.78;2.70;;;24.00;99.90;;;;;;5080475;28;20041;-69
2023/09/07 09:26:09;;;;;;;5.22;3.00;;;24.10;99.90;;;;;;5066141;28;20056;-68
2023/09/07 09:28:35;;;;;;;11.40;2.40;;;24.30;99.90;;;;;;5058317;28;20040;-68
2023/09/07 09:31:02;;;;;;;3.85;2.03;;;24.40;99.90;;;;;;5083969;28;20043;-68
2023/09/07 09:33:31;;;;;;;4.05;2.65;;;24.50;99.90;;;;;;5066072;28;20089;-68
2023/09/07 09:35:57;;;;;;;4.38;2.50;;;24.60;99.90;;;;;;5044169;28;20137;-69
2023/09/07 09:38:24;;;;;;;5.13;2.92;;;24.70;99.90;;;;;;5062577;28;20043;-68
2023/09/07 09:40:50;;;;;;;3.67;2.50;;;24.80;99.90;;;;;;5055894;28;20062;-68
2023/09/07 09:43:16;;;;;;;3.88;2.58;;;25.00;99.90;;;;;;5064861;28;20036;-68
2023/09/07 09:45:41;;;;;;;6.40;2.53;;;25.10;99.90;;;;;;5070697;28;20047;-69
2023/09/07 09:48:09;;;;;;;4.10;2.65;;;25.20;99.90;;;;;;5058174;28;20046;-68
2023/09/07 09:50:37;;;;;;;4.90;2.67;;;25.30;99.90;;;;;;5078022;28;20039;-69
2023/09/07 09:53:09;;;;;;;4.03;2.53;;;25.40;99.90;;;;;;5070156;28;20055;-68
2023/09/07 09:55:35;;;;;;;4.40;2.67;;;25.50;99.90;;;;;;5052290;28;20036;-69
2023/09/07 09:58:01;;;;;;;4.35;2.70;;;25.60;99.90;;;;;;5060628;28;20425;-68
2023/09/07 10:00:28;;;;;;;3.42;2.40;;;25.70;99.90;;;;;;5063910;28;20043;-69
2023/09/07 10:03:18;;;;;;;4.40;2.75;;;25.80;99.90;;;;;;5096216;28;20488;-68
2023/09/07 10:05:46;;;;;;;4.63;2.65;;;25.90;99.90;;;;;;5046580;28;20583;-68
2023/09/07 10:08:18;;;;;;;4.13;2.60;;;26.00;99.90;;;;;;5062293;28;20450;-69
2023/09/07 10:10:47;;;;;;;5.25;2.40;;;26.10;99.90;;;;;;5048175;28;20044;-69
2023/09/07 10:13:29;;;;;;;4.53;2.90;;;26.20;99.90;;;;;;5062205;28;20051;-68
2023/09/07 10:16:09;;;;;;;5.43;2.53;;;26.30;99.90;;;;;;5064511;28;20445;-68
2023/09/07 10:18:37;;;;;;;6.50;2.80;;;26.40;99.90;;;;;;5060216;28;20043;-68
2023/09/07 10:21:03;;;;;;;5.93;2.60;;;26.50;99.90;;;;;;5059404;28;20080;-69
2023/09/07 10:23:43;;;;;;;4.65;2.60;;;26.60;99.90;;;;;;5044074;28;20517;-69
2023/09/07 10:26:16;;;;;;;6.85;2.55;;;26.70;99.90;;;;;;5075950;28;20051;-68
2023/09/07 10:28:44;;;;;;;3.58;2.78;;;26.80;99.90;;;;;;5071274;28;20033;-69
2023/09/07 10:31:17;;;;;;;4.43;2.88;;;26.90;99.90;;;;;;5086940;28;20478;-68
2023/09/07 10:33:43;;;;;;;15.32;10.20;;;26.90;99.90;;;;;;5063394;28;20101;-69
2023/09/07 10:36:23;;;;;;;5.07;2.92;;;27.00;99.90;;;;;;5056282;28;20074;-69
2023/09/07 10:38:49;;;;;;;5.82;2.80;;;27.10;99.90;;;;;;5061621;28;20089;-68
2023/09/07 10:41:15;;;;;;;4.65;2.67;;;27.20;99.90;;;;;;5066260;28;20098;-68
2023/09/07 10:43:53;;;;;;;5.13;2.20;;;27.30;99.90;;;;;;5065045;28;20497;-69
2023/09/07 10:46:23;;;;;;;4.90;2.80;;;27.40;99.90;;;;;;5063032;28;20041;-68
2023/09/07 10:48:51;;;;;;;5.03;2.35;;;27.50;99.90;;;;;;5060526;28;20040;-68
2023/09/07 10:51:17;;;;;;;4.35;2.47;;;27.60;99.90;;;;;;5076816;28;20130;-69
2023/09/07 10:53:43;;;;;;;3.45;2.35;;;27.60;99.90;;;;;;5076178;28;20417;-68
2023/09/07 10:56:09;;;;;;;3.55;2.35;;;27.80;99.90;;;;;;5058427;28;20058;-68
2023/09/07 10:58:39;;;;;;;4.10;2.92;;;27.80;99.90;;;;;;5059556;28;20080;-68
2023/09/07 11:01:05;;;;;;;3.25;2.30;;;27.90;99.90;;;;;;5059825;28;20113;-68
2023/09/07 11:03:31;;;;;;;7.35;2.75;;;27.90;99.90;;;;;;5057622;28;20043;-69
2023/09/07 11:06:03;;;;;;;4.93;2.67;;;28.00;99.90;;;;;;5047804;28;20040;-69
2023/09/07 11:08:33;;;;;;;6.10;2.95;;;28.10;99.90;;;;;;5055820;28;20045;-69
2023/09/07 11:11:00;;;;;;;6.63;2.88;;;28.20;99.90;;;;;;5061167;28;20139;-69
2023/09/07 11:13:26;;;;;;;3.80;2.55;;;28.20;99.90;;;;;;5074818;28;20078;-69
2023/09/07 11:15:59;;;;;;;4.43;2.30;;;28.30;99.90;;;;;;5081497;28;20063;-68
2023/09/07 11:18:26;;;;;;;3.30;2.55;;;28.30;99.90;;;;;;5063249;28;20106;-68
2023/09/07 11:20:52;;;;;;;8.82;3.15;;;28.50;99.90;;;;;;5065498;28;20126;-68
2023/09/07 11:23:20;;;;;;;4.32;2.92;;;28.60;99.90;;;;;;5040004;28;20043;-69
2023/09/07 11:25:47;;;;;;;6.32;2.80;;;28.70;99.90;;;;;;5059606;28;20039;-68
2023/09/07 11:28:15;;;;;;;5.00;2.72;;;28.70;99.90;;;;;;5061757;28;20456;-68
2023/09/07 11:30:51;;;;;;;4.30;2.60;;;28.80;99.90;;;;;;5064829;28;20118;-69
2023/09/07 11:33:17;;;;;;;4.25;2.40;;;28.90;99.90;;;;;;5057012;28;20066;-68
2023/09/07 11:35:43;;;;;;;6.40;2.67;;;29.00;99.90;;;;;;5081440;28;20461;-68
2023/09/07 11:38:12;;;;;;;4.05;2.30;;;29.00;99.90;;;;;;5072312;28;20490;-69
2023/09/07 11:40:38;;;;;;;5.00;2.63;;;29.10;99.90;;;;;;5065022;28;20040;-68
2023/09/07 11:43:03;;;;;;;4.35;2.65;;;29.20;99.90;;;;;;5065677;28;20119;-68
2023/09/07 11:45:29;;;;;;;4.50;2.75;;;29.30;99.90;;;;;;5071933;28;20086;-69
2023/09/07 11:47:55;;;;;;;4.82;2.67;;;29.40;99.90;;;;;;5066365;28;20035;-68
2023/09/07 11:50:24;;;;;;;4.03;2.20;;;29.40;99.90;;;;;;5063648;28;20034;-69
2023/09/07 11:52:51;;;;;;;4.60;2.63;;;29.50;99.90;;;;;;5060156;28;20051;-69
2023/09/07 11:55:17;;;;;;;8.55;2.55;;;29.50;99.90;;;;;;5057750;28;20112;-68
2023/09/07 11:57:43;;;;;;;5.85;2.67;;;29.60;99.60;;;;;;5064037;28;20078;-69
2023/09/07 12:00:12;;;;;;;4.95;2.45;;;29.70;99.50;;;;;;5058686;28;20082;-69
2023/09/07 12:02:41;;;;;;;4.80;2.67;;;29.80;99.80;;;;;;5071601;28;20393;-69
2023/09/07 12:05:09;;;;;;;5.25;2.90;;;29.90;99.90;;;;;;5041622;28;20102;-69
2023/09/07 12:07:35;;;;;;;4.90;2.55;;;30.00;99.90;;;;;;5064329;28;20043;-69
2023/09/07 12:10:01;;;;;;;4.20;2.50;;;30.00;99.80;;;;;;5057158;28;20405;-68
2023/09/07 12:12:27;;;;;;;4.63;2.75;;;30.10;99.20;;;;;;5062182;28;20047;-68
2023/09/07 12:14:52;;;;;;;4.15;2.50;;;30.20;99.00;;;;;;5083529;28;20078;-69
2023/09/07 12:17:19;;;;;;;3.53;2.35;;;30.20;98.60;;;;;;5050015;28;20041;-69
2023/09/07 12:19:45;;;;;;;5.00;2.47;;;30.30;98.30;;;;;;5062197;28;20109;-69
2023/09/07 12:22:12;;;;;;;3.80;2.38;;;30.30;98.70;;;;;;5080709;28;20052;-69
2023/09/07 12:24:38;;;;;;;3.60;2.20;;;30.40;98.60;;;;;;5066441;28;20055;-69
2023/09/07 12:27:03;;;;;;;6.07;2.80;;;30.40;97.90;;;;;;5069423;28;20055;-69
2023/09/07 12:29:30;;;;;;;4.43;2.35;;;30.50;96.90;;;;;;5066997;28;20521;-69
2023/09/07 12:31:56;;;;;;;3.90;2.47;;;30.50;96.90;;;;;;5065389;28;20418;-69
2023/09/07 12:34:22;;;;;;;4.63;2.80;;;30.60;96.60;;;;;;5079578;28;20048;-69
2023/09/07 12:36:49;;;;;;;4.40;2.50;;;30.70;97.50;;;;;;5070910;28;20043;-69
2023/09/07 12:39:14;;;;;;;3.97;2.72;;;30.80;96.80;;;;;;5058348;28;20493;-69
2023/09/07 12:41:40;;;;;;;4.65;2.70;;;30.80;96.60;;;;;;5077991;28;20044;-69
2023/09/07 12:44:06;;;;;;;3.83;2.30;;;30.80;96.40;;;;;;5056406;28;20047;-69
2023/09/07 12:46:32;;;;;;;3.58;2.53;;;30.90;96.30;;;;;;5064217;28;20033;-69
2023/09/07 12:48:58;;;;;;;5.05;2.78;;;30.90;96.20;;;;;;5084183;28;20044;-68
2023/09/07 12:51:23;;;;;;;6.97;2.60;;;31.00;95.20;;;;;;5063561;28;20048;-69